Hinton, Canada
Current Conditions -  °F | °C
As of 5:00 PM on Friday 28 Nov 2014 (Local Time) from CYET Reporting Station
Light Snow Light Snow  
Wind Chill: -28°   Ceiling: 9500
Heat Index: -9°   Visibility: 6mi
Dew Point: -17°   Wind: 10mph
Humidity: 71%   Direction: 300°WNW
Pressure: 29.84"   Gusts: 17mph
Location:  53.4°N, 117.58°W
Report Text: CYET 290000Z AUTO 30009G15KT 6SM -SN OVC095 M23/M27 A2984 RMK SLP198
Loading
Personal Weather Stations






























Interactive Weather Map New forecast layout! Learn more

10-Day Weather Forecast

Advertisements
Track Severe Weather on mobile